Time;durP1;ratioP1;P1;durP2;ratioP2;P2;SDS_P1;SDS_P2;PMS_P1;PMS_P2;Temp;Humidity;BMP_temperature;BMP_pressure;BME280_temperature;BME280_humidity;BME280_pressure;Samples;Min_cycle;Max_cycle;Signal;HPM_P1;HPM_P2
2022/06/26 00:00:26;;;;;;;2.60;1.57;;;;;;;;;;4922192;28;92086;-70
2022/06/26 00:03:09;;;;;;;3.00;1.60;;;;;;;;;;4923433;28;92566;-69
2022/06/26 00:06:04;;;;;;;2.27;1.60;;;;;;;;;;4923685;28;89779;-72
2022/06/26 00:08:36;;;;;;;2.03;1.30;;;;;;;;;;4924367;28;88604;-70
2022/06/26 00:11:26;;;;;;;2.97;1.87;;;;;;;;;;4916996;28;92262;-70
2022/06/26 00:14:14;;;;;;;1.97;1.30;;;;;;;;;;4923244;28;88995;-70
2022/06/26 00:16:46;;;;;;;1.47;1.33;;;;;;;;;;4907068;28;90106;-70
2022/06/26 00:19:25;;;;;;;1.27;1.17;;;;;;;;;;4918298;28;89277;-73
2022/06/26 00:21:58;;;;;;;3.42;1.70;;;;;;;;;;4901495;28;89946;-73
2022/06/26 00:27:48;;;;;;;1.20;1.10;;;;;;;;;;4913059;28;89179;-75
2022/06/26 00:30:17;;;;;;;2.47;1.43;;;;;;;;;;4907309;28;88475;-74
2022/06/26 00:32:57;;;;;;;1.37;1.27;;;;;;;;;;4904674;28;90732;-74
2022/06/26 00:35:39;;;;;;;2.70;1.37;;;;;;;;;;4923820;28;89327;-74
2022/06/26 00:38:10;;;;;;;1.13;1.00;;;;;;;;;;4922581;28;88522;-74
2022/06/26 00:40:43;;;;;;;2.47;1.27;;;;;;;;;;4917770;28;88595;-72
2022/06/26 00:43:17;;;;;;;1.90;1.20;;;;;;;;;;4921861;28;90602;-73
2022/06/26 00:45:46;;;;;;;1.40;1.30;;;;;;;;;;4923416;28;90937;-73
2022/06/26 00:48:24;;;;;;;2.07;1.23;;;;;;;;;;4923990;28;88195;-73
2022/06/26 00:51:09;;;;;;;1.27;1.17;;;;;;;;;;4907005;28;88420;-73
2022/06/26 00:56:55;;;;;;;2.07;1.70;;;;;;;;;;4922617;28;90223;-72
2022/06/26 00:59:29;;;;;;;2.03;1.53;;;;;;;;;;4918465;28;88810;-73
2022/06/26 01:02:02;;;;;;;1.97;1.30;;;;;;;;;;4903106;28;88828;-73
2022/06/26 01:13:37;;;;;;;1.40;1.07;;;;;;;;;;4903054;28;88591;-73
2022/06/26 01:16:12;;;;;;;1.83;1.10;;;;;;;;;;4903620;28;90547;-73
2022/06/26 01:22:20;;;;;;;1.80;1.17;;;;;;;;;;4883224;28;88418;-74
2022/06/26 01:25:18;;;;;;;2.33;1.33;;;;;;;;;;4922614;28;88630;-74
2022/06/26 01:34:56;;;;;;;2.23;1.13;;;;;;;;;;4900637;28;88650;-74
2022/06/26 01:40:45;;;;;;;1.03;0.93;;;;;;;;;;4913950;28;91414;-73
2022/06/26 01:43:44;;;;;;;1.30;1.20;;;;;;;;;;4902333;28;88713;-74
2022/06/26 01:49:27;;;;;;;1.47;0.97;;;;;;;;;;4901796;28;88586;-73
2022/06/26 01:52:19;;;;;;;2.83;1.23;;;;;;;;;;4920115;28;90546;-73
2022/06/26 01:58:01;;;;;;;0.80;0.80;;;;;;;;;;4921142;28;89158;-73
2022/06/26 02:03:48;;;;;;;0.80;0.80;;;;;;;;;;4900335;28;89635;-74
2022/06/26 02:07:00;;;;;;;2.73;1.10;;;;;;;;;;4902636;28;89369;-74
2022/06/26 02:15:55;;;;;;;1.77;1.40;;;;;;;;;;4881409;28;89206;-74
2022/06/26 02:18:41;;;;;;;1.27;1.17;;;;;;;;;;4880159;28;88969;-73
2022/06/26 02:21:40;;;;;;;1.50;0.97;;;;;;;;;;4860257;29;88464;-73
2022/06/26 02:26:56;;;;;;;3.67;2.10;;;;;;;;;;4860601;29;89619;-73
2022/06/26 02:29:40;;;;;;;2.27;1.67;;;;;;;;;;4862266;28;89313;-73
2022/06/26 02:35:21;;;;;;;4.43;2.37;;;;;;;;;;4824940;29;88752;-73
2022/06/26 02:38:05;;;;;;;2.17;1.60;;;;;;;;;;4824482;29;89427;-73
2022/06/26 02:40:37;;;;;;;3.03;2.07;;;;;;;;;;4839279;29;88840;-73
2022/06/26 02:43:28;;;;;;;2.03;1.67;;;;;;;;;;4842946;29;88545;-73
2022/06/26 02:49:12;;;;;;;3.80;2.20;;;;;;;;;;4866951;28;90870;-72
2022/06/26 02:52:28;;;;;;;3.97;1.67;;;;;;;;;;4869719;28;89952;-73
2022/06/26 02:55:25;;;;;;;2.47;1.80;;;;;;;;;;4880275;28;88665;-73
2022/06/26 03:00:53;;;;;;;3.07;1.97;;;;;;;;;;4810355;29;89340;-73
2022/06/26 03:03:37;;;;;;;2.87;1.83;;;;;;;;;;4824423;29;89509;-74
2022/06/26 03:06:54;;;;;;;3.13;1.90;;;;;;;;;;4833881;29;88538;-74
2022/06/26 03:13:12;;;;;;;2.53;1.67;;;;;;;;;;4827385;29;89626;-73
2022/06/26 03:15:53;;;;;;;2.60;1.53;;;;;;;;;;4827641;29;88906;-73
2022/06/26 03:18:39;;;;;;;2.60;1.80;;;;;;;;;;4828252;29;88625;-73
2022/06/26 03:21:10;;;;;;;2.47;1.60;;;;;;;;;;4813486;29;88631;-73
2022/06/26 03:27:03;;;;;;;5.87;1.50;;;;;;;;;;4825608;29;89241;-72
2022/06/26 03:29:49;;;;;;;2.13;1.40;;;;;;;;;;4885627;28;88183;-73
2022/06/26 03:32:30;;;;;;;1.83;1.30;;;;;;;;;;4887581;28;88710;-73
2022/06/26 03:35:05;;;;;;;2.10;1.20;;;;;;;;;;4901678;28;89545;-73
2022/06/26 03:37:51;;;;;;;2.40;1.77;;;;;;;;;;4904400;28;90724;-73
2022/06/26 03:40:50;;;;;;;2.60;1.43;;;;;;;;;;4809247;29;88759;-72
2022/06/26 03:44:02;;;;;;;2.20;1.70;;;;;;;;;;4736307;29;88667;-73
2022/06/26 03:49:54;;;;;;;3.73;1.30;;;;;;;;;;4745028;29;88812;-73
2022/06/26 03:52:31;;;;;;;2.47;1.67;;;;;;;;;;4754434;29;89447;-73
2022/06/26 03:55:19;;;;;;;3.70;1.53;;;;;;;;;;4752051;29;88363;-73
2022/06/26 03:58:06;;;;;;;1.90;1.50;;;;;;;;;;4752198;29;90242;-73
2022/06/26 04:00:42;;;;;;;2.97;1.57;;;;;;;;;;4737410;29;89415;-74
2022/06/26 04:03:34;;;;;;;3.20;1.80;;;;;;;;;;4736400;29;88462;-74
2022/06/26 04:06:24;;;;;;;1.90;1.17;;;;;;;;;;4736304;29;88672;-74
2022/06/26 04:12:05;;;;;;;1.83;1.03;;;;;;;;;;4752954;29;88781;-73
2022/06/26 04:14:55;;;;;;;1.63;1.20;;;;;;;;;;4754508;29;88637;-72
2022/06/26 04:17:34;;;;;;;1.93;1.30;;;;;;;;;;4751915;29;88381;-73
2022/06/26 04:20:07;;;;;;;2.53;1.60;;;;;;;;;;4741589;29;91720;-73
2022/06/26 04:22:54;;;;;;;1.40;1.13;;;;;;;;;;4735916;29;88499;-73
2022/06/26 04:29:00;;;;;;;1.50;1.10;;;;;;;;;;4785061;29;88620;-73
2022/06/26 04:31:57;;;;;;;1.67;1.23;;;;;;;;;;4759908;29;89277;-73
2022/06/26 04:37:29;;;;;;;2.20;1.20;;;;;;;;;;4804536;29;88370;-73
2022/06/26 04:40:17;;;;;;;1.10;1.00;;;;;;;;;;4864561;28;88846;-73
2022/06/26 04:42:59;;;;;;;1.80;1.10;;;;;;;;;;4863950;29;92827;-73
2022/06/26 04:45:41;;;;;;;2.40;1.33;;;;;;;;;;4864209;29;88795;-73
2022/06/26 04:51:09;;;;;;;1.33;1.17;;;;;;;;;;4881694;28;88648;-74
2022/06/26 04:54:06;;;;;;;1.83;0.90;;;;;;;;;;4879926;28;89292;-73
2022/06/26 04:56:47;;;;;;;5.27;1.17;;;;;;;;;;4882364;28;90010;-72
2022/06/26 04:59:20;;;;;;;1.53;1.00;;;;;;;;;;4885543;28;89001;-72
2022/06/26 05:01:52;;;;;;;1.40;0.90;;;;;;;;;;4886799;28;88439;-72
2022/06/26 05:04:24;;;;;;;1.77;1.10;;;;;;;;;;4903845;28;89794;-72
2022/06/26 05:09:41;;;;;;;1.37;1.10;;;;;;;;;;4908534;28;88315;-73
2022/06/26 05:12:24;;;;;;;1.47;1.30;;;;;;;;;;4902495;28;88606;-73
2022/06/26 05:15:10;;;;;;;1.73;1.27;;;;;;;;;;4901936;28;89698;-73
2022/06/26 05:17:52;;;;;;;2.37;1.73;;;;;;;;;;4903284;28;88656;-72
2022/06/26 05:20:26;;;;;;;2.43;1.50;;;;;;;;;;4908694;28;91031;-73
2022/06/26 05:25:50;;;;;;;3.33;2.17;;;;;;;;;;4902708;28;90650;-73
2022/06/26 05:28:21;;;;;;;3.53;2.23;;;;;;;;;;4905278;28;90198;-73
2022/06/26 05:30:55;;;;;;;2.23;1.63;;;;;;;;;;4910322;28;90515;-72
2022/06/26 05:33:38;;;;;;;3.00;1.80;;;;;;;;;;4905598;28;88654;-72
2022/06/26 05:39:14;;;;;;;2.73;1.93;;;;;;;;;;4904535;28;89043;-72
2022/06/26 05:41:43;;;;;;;5.20;2.40;;;;;;;;;;4902692;28;90947;-72
2022/06/26 05:44:24;;;;;;;3.03;2.23;;;;;;;;;;4901551;28;90116;-73
2022/06/26 05:46:56;;;;;;;3.73;2.20;;;;;;;;;;4905932;28;89796;-73
2022/06/26 05:49:40;;;;;;;6.33;2.43;;;;;;;;;;4904430;28;89253;-74
2022/06/26 05:55:14;;;;;;;3.27;2.33;;;;;;;;;;4907902;28;88614;-74
2022/06/26 05:58:00;;;;;;;4.30;2.23;;;;;;;;;;4908175;28;90701;-73
2022/06/26 06:00:40;;;;;;;3.00;2.27;;;;;;;;;;4902032;28;89568;-73
2022/06/26 06:03:11;;;;;;;3.00;2.40;;;;;;;;;;4902764;28;88293;-73
2022/06/26 06:05:39;;;;;;;2.83;2.33;;;;;;;;;;4902779;28;88441;-74
2022/06/26 06:10:59;;;;;;;3.20;2.53;;;;;;;;;;4901280;28;88728;-75
2022/06/26 06:13:38;;;;;;;3.47;2.50;;;;;;;;;;4900713;28;89200;-76
2022/06/26 06:16:07;;;;;;;3.63;2.90;;;;;;;;;;4900182;28;88732;-75
2022/06/26 06:21:22;;;;;;;5.83;3.37;;;;;;;;;;4920007;28;88931;-75
2022/06/26 06:23:55;;;;;;;6.10;3.23;;;;;;;;;;4919894;28;88819;-76
2022/06/26 06:26:39;;;;;;;5.00;3.00;;;;;;;;;;4861302;29;88957;-77
2022/06/26 06:29:07;;;;;;;3.93;3.03;;;;;;;;;;4861770;29;89673;-76
2022/06/26 06:31:40;;;;;;;5.03;3.07;;;;;;;;;;4860885;29;88864;-76
2022/06/26 06:34:15;;;;;;;7.53;3.30;;;;;;;;;;4861310;29;89227;-76
2022/06/26 06:36:43;;;;;;;6.40;3.33;;;;;;;;;;4861298;29;88579;-75
2022/06/26 06:39:12;;;;;;;5.83;3.60;;;;;;;;;;4861558;29;93527;-76
2022/06/26 06:41:48;;;;;;;6.00;3.73;;;;;;;;;;4861228;29;90079;-76
2022/06/26 06:44:23;;;;;;;7.07;3.80;;;;;;;;;;4861637;29;88438;-76
2022/06/26 06:46:56;;;;;;;4.20;3.30;;;;;;;;;;4861208;29;88655;-76
2022/06/26 06:49:25;;;;;;;6.77;4.20;;;;;;;;;;4860233;29;89791;-76
2022/06/26 06:51:54;;;;;;;5.20;3.47;;;;;;;;;;4860847;29;88447;-76
2022/06/26 06:54:24;;;;;;;4.67;3.07;;;;;;;;;;4860642;29;89869;-76
2022/06/26 07:00:04;;;;;;;6.80;3.83;;;;;;;;;;4902485;28;89384;-76
2022/06/26 07:02:40;;;;;;;5.43;4.40;;;;;;;;;;4903335;28;88612;-76
2022/06/26 07:08:16;;;;;;;4.10;3.50;;;;;;;;;;4898308;28;89165;-76
2022/06/26 07:10:44;;;;;;;3.70;2.93;;;;;;;;;;4901289;28;89117;-77
2022/06/26 07:13:23;;;;;;;5.93;3.60;;;;;;;;;;4901234;28;88762;-79
2022/06/26 07:16:03;;;;;;;5.67;3.47;;;;;;;;;;4912160;28;88444;-76
2022/06/26 07:18:35;;;;;;;5.97;3.97;;;;;;;;;;4906204;28;88698;-77
2022/06/26 07:21:03;;;;;;;5.47;3.93;;;;;;;;;;4902399;28;90875;-69
2022/06/26 07:23:35;;;;;;;5.07;3.37;;;;;;;;;;4900517;28;90200;-68
2022/06/26 07:26:04;;;;;;;4.80;3.30;;;;;;;;;;4911542;28;90038;-68
2022/06/26 07:28:36;;;;;;;6.27;3.90;;;;;;;;;;4908542;28;88635;-68
2022/06/26 07:34:27;;;;;;;5.43;3.67;;;;;;;;;;4901933;28;89326;-76
2022/06/26 07:36:56;;;;;;;4.87;3.90;;;;;;;;;;4903009;28;88262;-68
2022/06/26 07:39:47;;;;;;;5.93;3.43;;;;;;;;;;4917799;28;89801;-69
2022/06/26 07:45:28;;;;;;;5.13;4.27;;;;;;;;;;4886662;28;90049;-75
2022/06/26 07:48:05;;;;;;;5.03;3.40;;;;;;;;;;4888831;28;88636;-76
2022/06/26 07:50:40;;;;;;;6.20;4.10;;;;;;;;;;4903655;28;88643;-76
2022/06/26 07:53:09;;;;;;;7.80;4.47;;;;;;;;;;4921143;28;92540;-76
2022/06/26 07:55:38;;;;;;;7.37;4.00;;;;;;;;;;4924144;28;89544;-76
2022/06/26 07:58:09;;;;;;;6.43;3.80;;;;;;;;;;4917499;28;90589;-75
2022/06/26 08:00:48;;;;;;;6.47;4.13;;;;;;;;;;4901762;28;88383;-76
2022/06/26 08:03:16;;;;;;;8.67;4.53;;;;;;;;;;4904967;28;90158;-76
2022/06/26 08:08:43;;;;;;;5.43;3.60;;;;;;;;;;4897379;28;89199;-75
2022/06/26 08:11:13;;;;;;;10.53;4.43;;;;;;;;;;4924087;28;88669;-76
2022/06/26 08:14:00;;;;;;;7.57;5.07;;;;;;;;;;4906657;28;89247;-76
2022/06/26 08:16:47;;;;;;;6.17;4.67;;;;;;;;;;4923608;28;90238;-76
2022/06/26 08:19:38;;;;;;;7.57;4.53;;;;;;;;;;4904405;28;91033;-76
2022/06/26 08:25:12;;;;;;;8.20;4.97;;;;;;;;;;4903697;28;89306;-76
2022/06/26 08:27:57;;;;;;;10.20;5.97;;;;;;;;;;4909944;28;89071;-76
2022/06/26 08:30:29;;;;;;;9.17;5.60;;;;;;;;;;4911162;28;92887;-76
2022/06/26 08:32:59;;;;;;;9.90;5.30;;;;;;;;;;4904350;28;88667;-76
2022/06/26 08:35:35;;;;;;;8.90;5.33;;;;;;;;;;4904387;28;90730;-76
2022/06/26 08:38:06;;;;;;;10.90;5.70;;;;;;;;;;4903648;28;91779;-76
2022/06/26 08:40:41;;;;;;;9.27;5.77;;;;;;;;;;4902819;28;88804;-75
2022/06/26 08:43:13;;;;;;;8.13;5.73;;;;;;;;;;4903820;28;88651;-76
2022/06/26 08:45:45;;;;;;;10.80;6.60;;;;;;;;;;4903943;28;91964;-76
2022/06/26 08:48:15;;;;;;;8.73;5.57;;;;;;;;;;4903927;28;88916;-75
2022/06/26 08:50:46;;;;;;;7.07;5.07;;;;;;;;;;4903269;28;88311;-76
2022/06/26 08:53:14;;;;;;;8.70;5.30;;;;;;;;;;4903632;28;88664;-76
2022/06/26 08:55:43;;;;;;;7.93;5.43;;;;;;;;;;4903899;28;90168;-76
2022/06/26 08:58:12;;;;;;;8.63;6.03;;;;;;;;;;4903267;28;89035;-76
2022/06/26 09:00:44;;;;;;;9.60;5.37;;;;;;;;;;4904495;28;88501;-77
2022/06/26 09:03:16;;;;;;;8.87;5.70;;;;;;;;;;4903900;28;88407;-77
2022/06/26 09:05:47;;;;;;;9.03;5.87;;;;;;;;;;4911075;28;89718;-77
2022/06/26 09:08:19;;;;;;;9.13;6.40;;;;;;;;;;4922319;28;88990;-76
2022/06/26 09:10:50;;;;;;;7.30;5.93;;;;;;;;;;4915695;28;88618;-76
2022/06/26 09:13:22;;;;;;;8.60;5.47;;;;;;;;;;4907089;28;88520;-77
2022/06/26 09:16:01;;;;;;;9.50;6.10;;;;;;;;;;4922074;28;89540;-76
2022/06/26 09:18:45;;;;;;;9.50;5.70;;;;;;;;;;4922814;28;89411;-78
2022/06/26 09:21:18;;;;;;;11.33;5.97;;;;;;;;;;4922250;28;88480;-78
2022/06/26 09:23:56;;;;;;;10.87;5.20;;;;;;;;;;4920846;28;88373;-79
2022/06/26 09:26:25;;;;;;;6.57;4.37;;;;;;;;;;4908587;28;90956;-79
2022/06/26 09:29:02;;;;;;;8.10;4.93;;;;;;;;;;4903339;28;92707;-79
2022/06/26 09:31:30;;;;;;;6.90;4.07;;;;;;;;;;4915703;28;89705;-77
2022/06/26 09:34:21;;;;;;;7.53;4.53;;;;;;;;;;4920129;28;89631;-78
2022/06/26 09:37:19;;;;;;;6.33;4.07;;;;;;;;;;4911708;28;91940;-79
2022/06/26 09:40:05;;;;;;;5.70;3.87;;;;;;;;;;4900732;28;90930;-77
2022/06/26 09:42:44;;;;;;;9.47;4.10;;;;;;;;;;4902583;28;89057;-77
2022/06/26 09:45:42;;;;;;;5.57;4.10;;;;;;;;;;4905562;28;88464;-77
2022/06/26 09:48:27;;;;;;;5.10;3.60;;;;;;;;;;4907627;28;89698;-77
2022/06/26 09:50:57;;;;;;;8.07;3.67;;;;;;;;;;4885760;28;88585;-78
2022/06/26 09:56:18;;;;;;;7.07;3.77;;;;;;;;;;4902080;28;88730;-77
2022/06/26 10:13:40;;;;;;;3.87;2.43;;;;;;;;;;4902053;28;88772;-78
2022/06/26 10:16:20;;;;;;;3.93;2.60;;;;;;;;;;4900960;28;88718;-78
2022/06/26 10:18:54;;;;;;;4.40;2.70;;;;;;;;;;4916334;28;88540;-77
2022/06/26 10:21:24;;;;;;;5.83;3.00;;;;;;;;;;4906341;28;92046;-78
2022/06/26 10:24:10;;;;;;;3.73;2.20;;;;;;;;;;4904196;28;90084;-78
2022/06/26 10:27:07;;;;;;;4.37;2.40;;;;;;;;;;4900617;28;89713;-78
2022/06/26 10:29:43;;;;;;;2.67;1.87;;;;;;;;;;4919613;28;88544;-78
2022/06/26 10:32:30;;;;;;;4.33;1.93;;;;;;;;;;4906600;28;89501;-78
2022/06/26 10:35:03;;;;;;;2.23;1.93;;;;;;;;;;4901209;28;89015;-78
2022/06/26 10:37:41;;;;;;;5.83;2.63;;;;;;;;;;4918876;28;88581;-78
2022/06/26 10:42:52;;;;;;;3.90;2.10;;;;;;;;;;4907535;28;88548;-77
2022/06/26 10:43:15;;;;;;;3.43;1.63;;;;;;;;;;4905589;28;91743;-77
2022/06/26 10:45:45;;;;;;;3.83;2.40;;;;;;;;;;4905263;28;89448;-78
2022/06/26 10:48:20;;;;;;;2.93;2.03;;;;;;;;;;4903026;28;88624;-78
2022/06/26 10:51:07;;;;;;;3.47;1.93;;;;;;;;;;4900875;28;88742;-77
2022/06/26 10:53:49;;;;;;;3.80;2.50;;;;;;;;;;4900681;28;89556;-77
2022/06/26 10:56:22;;;;;;;3.57;1.93;;;;;;;;;;4900155;28;90145;-78
2022/06/26 10:59:11;;;;;;;3.10;1.40;;;;;;;;;;4899862;28;90777;-77
2022/06/26 11:01:52;;;;;;;2.67;1.00;;;;;;;;;;4903596;28;88742;-78
2022/06/26 11:04:24;;;;;;;2.67;1.77;;;;;;;;;;4917261;28;90810;-78
2022/06/26 11:06:57;;;;;;;1.83;1.43;;;;;;;;;;4912285;28;89283;-78
2022/06/26 11:09:41;;;;;;;2.30;1.53;;;;;;;;;;4908208;28;90886;-77
2022/06/26 11:12:13;;;;;;;2.47;1.30;;;;;;;;;;4902499;28;88754;-77
2022/06/26 11:14:49;;;;;;;1.83;1.47;;;;;;;;;;4914654;28;89434;-77
2022/06/26 11:17:29;;;;;;;2.37;1.27;;;;;;;;;;4900178;28;89160;-78
2022/06/26 11:22:50;;;;;;;2.57;1.87;;;;;;;;;;4917269;28;88436;-78
2022/06/26 11:25:18;;;;;;;4.80;1.97;;;;;;;;;;4915546;28;90591;-77
2022/06/26 11:28:09;;;;;;;2.50;1.57;;;;;;;;;;4914562;28;90485;-77
2022/06/26 11:31:05;;;;;;;2.03;1.73;;;;;;;;;;4903781;28;88560;-78
2022/06/26 11:33:49;;;;;;;2.43;1.57;;;;;;;;;;4920556;28;88721;-78
2022/06/26 11:39:09;;;;;;;1.37;1.27;;;;;;;;;;4905133;28;90110;-77
2022/06/26 11:41:44;;;;;;;1.33;1.23;;;;;;;;;;4904683;28;88852;-77
2022/06/26 11:47:12;;;;;;;2.03;1.30;;;;;;;;;;4918819;28;89310;-77
2022/06/26 11:49:48;;;;;;;2.27;1.23;;;;;;;;;;4922018;28;90141;-78
2022/06/26 11:52:24;;;;;;;1.60;1.30;;;;;;;;;;4903014;28;90112;-77
2022/06/26 11:55:00;;;;;;;1.67;1.40;;;;;;;;;;4903090;28;88209;-79
2022/06/26 11:57:38;;;;;;;2.57;1.43;;;;;;;;;;4903618;28;89722;-78
2022/06/26 12:03:07;;;;;;;1.40;1.30;;;;;;;;;;4904133;28;88431;-78
2022/06/26 12:08:47;;;;;;;2.03;1.50;;;;;;;;;;4908982;28;90100;-77
2022/06/26 12:11:24;;;;;;;1.57;1.30;;;;;;;;;;4903726;28;89089;-77
2022/06/26 12:16:59;;;;;;;2.23;1.40;;;;;;;;;;4907980;28;88593;-77
2022/06/26 12:19:57;;;;;;;3.20;1.33;;;;;;;;;;4875179;28;89621;-78
2022/06/26 12:22:31;;;;;;;1.70;1.60;;;;;;;;;;4881986;28;90418;-77
2022/06/26 12:25:10;;;;;;;1.40;1.30;;;;;;;;;;4881408;28;88483;-78
2022/06/26 12:27:52;;;;;;;1.77;1.40;;;;;;;;;;4882790;28;88624;-77
2022/06/26 12:30:21;;;;;;;1.60;1.43;;;;;;;;;;4882067;28;90656;-77
2022/06/26 12:35:47;;;;;;;2.07;1.80;;;;;;;;;;4881505;28;90643;-77
2022/06/26 12:38:28;;;;;;;1.67;1.30;;;;;;;;;;4897280;28;88635;-77
2022/06/26 12:41:35;;;;;;;2.03;1.37;;;;;;;;;;4901608;28;89290;-77
2022/06/26 12:47:24;;;;;;;1.43;1.10;;;;;;;;;;4871405;28;88734;-77
2022/06/26 12:49:53;;;;;;;1.33;1.20;;;;;;;;;;4879843;28;88766;-77
2022/06/26 12:52:25;;;;;;;2.43;1.50;;;;;;;;;;4875568;28;89406;-77
2022/06/26 12:54:55;;;;;;;1.40;1.30;;;;;;;;;;4876637;28;88997;-76
2022/06/26 12:57:48;;;;;;;1.43;1.33;;;;;;;;;;4846076;28;88593;-77
2022/06/26 13:00:22;;;;;;;1.67;1.27;;;;;;;;;;4873363;28;89092;-77
2022/06/26 13:02:58;;;;;;;1.43;1.33;;;;;;;;;;4876257;28;89982;-77
2022/06/26 13:05:28;;;;;;;1.93;1.27;;;;;;;;;;4867238;28;92480;-77
2022/06/26 13:07:59;;;;;;;2.73;1.33;;;;;;;;;;4868770;28;88738;-78
2022/06/26 13:10:36;;;;;;;2.10;1.57;;;;;;;;;;4866399;28;88611;-78
2022/06/26 13:13:05;;;;;;;2.27;1.70;;;;;;;;;;4879085;28;90883;-77
2022/06/26 13:15:38;;;;;;;1.70;1.60;;;;;;;;;;4883562;28;88869;-78
2022/06/26 13:21:00;;;;;;;3.77;1.70;;;;;;;;;;4918607;28;88459;-77
2022/06/26 13:23:49;;;;;;;1.90;1.70;;;;;;;;;;4902288;28;93898;-77
2022/06/26 13:26:19;;;;;;;2.40;1.73;;;;;;;;;;4867021;28;89065;-77
2022/06/26 13:28:55;;;;;;;5.70;2.07;;;;;;;;;;4913207;28;89344;-77
2022/06/26 13:31:30;;;;;;;1.77;1.50;;;;;;;;;;4919279;28;89200;-77
2022/06/26 13:34:09;;;;;;;2.00;1.80;;;;;;;;;;4921399;28;89881;-76
2022/06/26 13:36:54;;;;;;;1.97;1.70;;;;;;;;;;4915644;28;89470;-77
2022/06/26 13:39:41;;;;;;;2.40;1.87;;;;;;;;;;4885530;28;90345;-77
2022/06/26 13:42:14;;;;;;;2.03;1.40;;;;;;;;;;4901231;28;88610;-77
2022/06/26 13:44:44;;;;;;;2.23;1.73;;;;;;;;;;4884352;28;89856;-77
2022/06/26 13:47:28;;;;;;;1.90;1.70;;;;;;;;;;4885678;28;90277;-77
2022/06/26 13:50:06;;;;;;;1.60;1.50;;;;;;;;;;4883742;28;88586;-77
2022/06/26 13:52:58;;;;;;;2.17;1.50;;;;;;;;;;4864138;28;88662;-77
2022/06/26 13:55:29;;;;;;;3.70;1.83;;;;;;;;;;4892660;28;90542;-78
2022/06/26 13:58:11;;;;;;;2.07;1.53;;;;;;;;;;4887047;28;90800;-76
2022/06/26 14:00:43;;;;;;;1.67;1.50;;;;;;;;;;4901031;28;88849;-77
2022/06/26 14:03:19;;;;;;;3.53;1.77;;;;;;;;;;4884210;28;88698;-77
2022/06/26 14:05:54;;;;;;;1.50;1.37;;;;;;;;;;4887320;28;89505;-77
2022/06/26 14:08:31;;;;;;;3.77;1.37;;;;;;;;;;4889597;28;88998;-77
2022/06/26 14:11:02;;;;;;;2.50;1.43;;;;;;;;;;4880311;28;88684;-77
2022/06/26 14:13:34;;;;;;;2.03;1.70;;;;;;;;;;4875902;28;88647;-77
2022/06/26 14:16:11;;;;;;;2.50;1.83;;;;;;;;;;4900627;28;89496;-77
2022/06/26 14:18:44;;;;;;;2.47;1.60;;;;;;;;;;4888239;28;88949;-75
2022/06/26 14:21:21;;;;;;;1.90;1.40;;;;;;;;;;4899699;28;88650;-76
2022/06/26 14:26:52;;;;;;;1.63;1.43;;;;;;;;;;4892947;28;89606;-77
2022/06/26 14:29:35;;;;;;;1.70;1.50;;;;;;;;;;4877151;28;88673;-76
2022/06/26 14:34:59;;;;;;;5.43;1.53;;;;;;;;;;4898613;28;88442;-76
2022/06/26 14:37:32;;;;;;;3.17;1.70;;;;;;;;;;4885119;28;91075;-76
2022/06/26 14:40:17;;;;;;;2.67;1.77;;;;;;;;;;4903548;28;90389;-76
2022/06/26 14:43:05;;;;;;;2.07;1.80;;;;;;;;;;4905615;28;89465;-75
2022/06/26 14:46:01;;;;;;;2.37;1.87;;;;;;;;;;4903000;28;88594;-77
2022/06/26 14:48:34;;;;;;;2.80;2.03;;;;;;;;;;4918348;28;89401;-79
2022/06/26 14:51:20;;;;;;;4.47;2.70;;;;;;;;;;4910415;28;89322;-77
2022/06/26 14:53:53;;;;;;;5.30;2.67;;;;;;;;;;4912251;28;88585;-76
2022/06/26 14:56:28;;;;;;;3.20;2.47;;;;;;;;;;4901518;28;88461;-77
2022/06/26 14:59:00;;;;;;;5.13;2.43;;;;;;;;;;4904806;28;90787;-77
2022/06/26 15:01:38;;;;;;;5.10;2.90;;;;;;;;;;4901622;28;90003;-76
2022/06/26 15:07:01;;;;;;;4.57;3.00;;;;;;;;;;4907985;28;88194;-76
2022/06/26 15:09:32;;;;;;;4.47;3.07;;;;;;;;;;4907210;28;89810;-77
2022/06/26 15:12:06;;;;;;;5.43;3.07;;;;;;;;;;4908738;28;88787;-77
2022/06/26 15:14:38;;;;;;;3.40;2.97;;;;;;;;;;4908932;28;88523;-77
2022/06/26 15:17:24;;;;;;;3.63;2.80;;;;;;;;;;4918506;28;88670;-76
2022/06/26 15:20:00;;;;;;;3.47;2.83;;;;;;;;;;4907741;28;88473;-77
2022/06/26 15:22:34;;;;;;;3.90;3.00;;;;;;;;;;4907371;28;90512;-77
2022/06/26 15:25:05;;;;;;;4.70;3.17;;;;;;;;;;4919193;28;91465;-76
2022/06/26 15:27:46;;;;;;;6.40;3.63;;;;;;;;;;4918900;28;88587;-77
2022/06/26 15:30:17;;;;;;;7.00;3.03;;;;;;;;;;4909081;28;92265;-78
2022/06/26 15:32:49;;;;;;;5.03;3.00;;;;;;;;;;4925282;28;89193;-77
2022/06/26 15:35:54;;;;;;;5.73;2.90;;;;;;;;;;4923155;28;88500;-76
2022/06/26 15:38:31;;;;;;;4.17;2.97;;;;;;;;;;4925074;28;88801;-76
2022/06/26 15:41:05;;;;;;;4.77;3.20;;;;;;;;;;4916970;28;89837;-77
2022/06/26 15:43:44;;;;;;;4.60;3.23;;;;;;;;;;4908640;28;88870;-77
2022/06/26 15:46:16;;;;;;;5.20;3.23;;;;;;;;;;4908143;28;90314;-77
2022/06/26 15:48:49;;;;;;;6.47;3.17;;;;;;;;;;4907145;28;88639;-77
2022/06/26 15:51:50;;;;;;;4.30;3.30;;;;;;;;;;4892646;28;89981;-77
2022/06/26 15:54:20;;;;;;;3.23;2.73;;;;;;;;;;4912798;28;92370;-76
2022/06/26 15:56:52;;;;;;;5.03;2.93;;;;;;;;;;4907340;28;88680;-77
2022/06/26 15:59:27;;;;;;;4.53;2.40;;;;;;;;;;4912324;28;88612;-76
2022/06/26 16:01:56;;;;;;;5.40;3.63;;;;;;;;;;4906952;28;91276;-76
2022/06/26 16:04:30;;;;;;;3.50;2.33;;;;;;;;;;4913071;28;91941;-74
2022/06/26 16:16:05;;;;;;;2.37;1.50;;;;;;;;;;4919881;28;89088;-76
2022/06/26 16:18:36;;;;;;;5.60;1.30;;;;;;;;;;4907333;28;88680;-76
2022/06/26 16:21:14;;;;;;;2.23;1.53;;;;;;;;;;4913863;28;88623;-76
2022/06/26 16:26:39;;;;;;;10.33;1.70;;;;;;;;;;4913720;28;90500;-76
2022/06/26 16:29:14;;;;;;;1.60;1.40;;;;;;;;;;4902117;28;89235;-76
2022/06/26 16:37:34;;;;;;;1.60;1.50;;;;;;;;;;4908945;28;88714;-76
2022/06/26 16:40:04;;;;;;;1.93;1.50;;;;;;;;;;4906758;28;88846;-76
2022/06/26 16:48:37;;;;;;;2.20;1.57;;;;;;;;;;4906577;28;88844;-75
2022/06/26 16:51:14;;;;;;;1.43;1.30;;;;;;;;;;4903624;28;88397;-77
2022/06/26 16:53:44;;;;;;;2.10;1.10;;;;;;;;;;4904617;28;88706;-76
2022/06/26 16:56:13;;;;;;;2.33;1.40;;;;;;;;;;4904016;28;92627;-77
2022/06/26 17:01:39;;;;;;;1.43;1.27;;;;;;;;;;4903365;28;91009;-77
2022/06/26 17:04:11;;;;;;;3.23;1.23;;;;;;;;;;4902647;28;88398;-77
2022/06/26 17:06:44;;;;;;;1.03;0.90;;;;;;;;;;4901131;28;89518;-76
2022/06/26 17:09:36;;;;;;;1.57;1.40;;;;;;;;;;4902820;28;88315;-76
2022/06/26 17:12:15;;;;;;;2.23;1.60;;;;;;;;;;4904011;28;92780;-78
2022/06/26 17:14:43;;;;;;;3.10;1.53;;;;;;;;;;4900042;28;89563;-76
2022/06/26 17:17:12;;;;;;;2.07;1.40;;;;;;;;;;4908111;28;90529;-77
2022/06/26 17:19:44;;;;;;;1.57;1.37;;;;;;;;;;4889147;28;92103;-77
2022/06/26 17:22:16;;;;;;;2.83;1.37;;;;;;;;;;4910889;28;88573;-77
2022/06/26 17:24:46;;;;;;;3.43;1.63;;;;;;;;;;4911956;28;89269;-77
2022/06/26 17:27:28;;;;;;;2.07;1.40;;;;;;;;;;4904250;28;89659;-78
2022/06/26 17:30:07;;;;;;;1.83;1.40;;;;;;;;;;4909158;28;88815;-77
2022/06/26 17:32:41;;;;;;;2.73;1.47;;;;;;;;;;4914145;28;88659;-77
2022/06/26 17:35:21;;;;;;;3.03;1.70;;;;;;;;;;4901712;28;88729;-78
2022/06/26 17:38:04;;;;;;;2.30;1.50;;;;;;;;;;4902865;28;89481;-77
2022/06/26 17:40:35;;;;;;;5.43;1.40;;;;;;;;;;4904785;28;90785;-77
2022/06/26 17:43:07;;;;;;;3.23;1.60;;;;;;;;;;4903081;28;88594;-75
2022/06/26 17:45:45;;;;;;;5.90;1.97;;;;;;;;;;4906590;28;88653;-76
2022/06/26 17:48:18;;;;;;;4.63;1.43;;;;;;;;;;4917559;28;88561;-76
2022/06/26 17:50:50;;;;;;;1.43;1.03;;;;;;;;;;4920574;28;90352;-77
2022/06/26 17:53:21;;;;;;;1.57;1.47;;;;;;;;;;4915395;28;88666;-78
2022/06/26 17:55:53;;;;;;;2.03;1.50;;;;;;;;;;4916220;28;88816;-77
2022/06/26 17:58:24;;;;;;;2.37;1.50;;;;;;;;;;4919855;28;90357;-77
2022/06/26 18:01:04;;;;;;;2.73;1.77;;;;;;;;;;4916018;28;90801;-77
2022/06/26 18:03:34;;;;;;;2.27;1.60;;;;;;;;;;4899722;28;89890;-78
2022/06/26 18:06:10;;;;;;;3.60;1.73;;;;;;;;;;4911885;28;88718;-77
2022/06/26 18:08:58;;;;;;;1.40;1.30;;;;;;;;;;4917462;28;89575;-77
2022/06/26 18:11:31;;;;;;;2.80;1.40;;;;;;;;;;4917677;28;88850;-78
2022/06/26 18:14:18;;;;;;;2.00;1.80;;;;;;;;;;4913773;28;88620;-77
2022/06/26 18:16:47;;;;;;;2.43;1.40;;;;;;;;;;4917881;28;88545;-78
2022/06/26 18:19:31;;;;;;;2.93;1.77;;;;;;;;;;4916134;28;90586;-77
2022/06/26 18:22:14;;;;;;;2.17;1.70;;;;;;;;;;4920396;28;89688;-76
2022/06/26 18:24:46;;;;;;;2.53;1.43;;;;;;;;;;4911977;28;89128;-77
2022/06/26 18:27:25;;;;;;;2.80;1.47;;;;;;;;;;4919669;28;89249;-77
2022/06/26 18:29:57;;;;;;;3.47;1.40;;;;;;;;;;4891663;28;89471;-78
2022/06/26 18:32:47;;;;;;;1.73;1.47;;;;;;;;;;4913503;28;89018;-77
2022/06/26 18:35:30;;;;;;;3.53;1.30;;;;;;;;;;4907222;28;88509;-76
2022/06/26 18:38:08;;;;;;;2.27;1.40;;;;;;;;;;4900513;28;88718;-78
2022/06/26 18:40:47;;;;;;;3.53;1.57;;;;;;;;;;4907011;28;89943;-77
2022/06/26 18:43:17;;;;;;;2.70;1.60;;;;;;;;;;4903749;28;89816;-78
2022/06/26 18:45:51;;;;;;;1.50;1.03;;;;;;;;;;4902849;28;89352;-78
2022/06/26 18:48:36;;;;;;;1.97;1.10;;;;;;;;;;4901790;28;88649;-79
2022/06/26 18:51:06;;;;;;;2.23;1.10;;;;;;;;;;4902851;28;89523;-77
2022/06/26 18:53:52;;;;;;;1.20;1.10;;;;;;;;;;4910548;28;88712;-77
2022/06/26 18:56:23;;;;;;;1.30;1.20;;;;;;;;;;4901538;28;90506;-76
2022/06/26 18:59:09;;;;;;;1.53;1.17;;;;;;;;;;4901368;28;88351;-77